Time;durP1;ratioP1;P1;durP2;ratioP2;P2;SDS_P1;SDS_P2;PMS_P1;PMS_P2;Temp;Humidity;BMP_temperature;BMP_pressure;BME280_temperature;BME280_humidity;BME280_pressure;Samples;Min_cycle;Max_cycle;Signal;HPM_P1;HPM_P2
2023/04/28 00:00:22;;;;;;;0.93;0.30;;;19.90;59.40;;;;;;5010493;28;20847;-72
2023/04/28 00:02:49;;;;;;;0.60;0.20;;;19.90;59.40;;;;;;5010007;28;20065;-71
2023/04/28 00:05:16;;;;;;;0.93;0.32;;;19.80;59.40;;;;;;4998815;28;20085;-71
2023/04/28 00:07:43;;;;;;;0.60;0.20;;;19.80;59.50;;;;;;5009881;28;20554;-72
2023/04/28 00:10:10;;;;;;;1.27;0.30;;;19.80;59.40;;;;;;5008901;28;20045;-72
2023/04/28 00:12:39;;;;;;;1.10;0.38;;;19.70;59.40;;;;;;5008948;28;20061;-72
2023/04/28 00:15:06;;;;;;;0.52;0.20;;;19.70;59.40;;;;;;4998022;28;20050;-71
2023/04/28 00:17:33;;;;;;;0.77;0.22;;;19.70;59.50;;;;;;5009210;28;20052;-71
2023/04/28 00:20:00;;;;;;;0.75;0.40;;;19.70;59.50;;;;;;5009900;28;20454;-72
2023/04/28 00:22:27;;;;;;;0.93;0.20;;;19.70;59.50;;;;;;5007687;28;20060;-71
2023/04/28 00:24:54;;;;;;;0.68;0.20;;;19.70;59.60;;;;;;5007989;28;20455;-72
2023/04/28 00:27:21;;;;;;;1.20;0.40;;;19.60;59.50;;;;;;5009502;28;20057;-72
2023/04/28 00:29:49;;;;;;;0.70;0.20;;;19.60;59.60;;;;;;5009596;28;20057;-72
2023/04/28 00:32:16;;;;;;;0.82;0.40;;;19.60;59.60;;;;;;5007458;28;20170;-72
2023/04/28 00:34:43;;;;;;;0.98;0.25;;;19.60;60.20;;;;;;5008712;28;20046;-71
2023/04/28 00:37:10;;;;;;;0.80;0.20;;;19.60;59.60;;;;;;5007771;28;20507;-72
2023/04/28 00:39:37;;;;;;;1.35;0.20;;;19.50;59.60;;;;;;5004122;28;20077;-71
2023/04/28 00:42:04;;;;;;;1.00;0.50;;;19.50;59.60;;;;;;5008439;28;20490;-72
2023/04/28 00:44:31;;;;;;;0.85;0.20;;;19.50;59.60;;;;;;5004908;28;20046;-72
2023/04/28 00:46:59;;;;;;;1.05;0.30;;;19.50;60.30;;;;;;5005266;28;20061;-71
2023/04/28 00:49:27;;;;;;;0.80;0.40;;;19.50;59.70;;;;;;5008222;28;20136;-71
2023/04/28 00:51:53;;;;;;;0.88;0.30;;;19.40;59.60;;;;;;4995508;28;20050;-71
2023/04/28 00:54:21;;;;;;;0.80;0.30;;;19.50;59.70;;;;;;5005856;28;20057;-71
2023/04/28 00:56:48;;;;;;;1.00;0.22;;;19.40;59.60;;;;;;5009088;28;20057;-72
2023/04/28 00:59:15;;;;;;;0.90;0.20;;;19.40;59.70;;;;;;5009166;28;20046;-72
2023/04/28 01:01:42;;;;;;;1.00;0.25;;;19.40;59.60;;;;;;5006903;28;20042;-72
2023/04/28 01:04:10;;;;;;;0.75;0.25;;;19.40;59.70;;;;;;5008046;28;20057;-72
2023/04/28 01:06:38;;;;;;;0.88;0.20;;;19.40;59.60;;;;;;5008990;28;20503;-71
2023/04/28 01:09:06;;;;;;;0.82;0.25;;;19.40;59.70;;;;;;5008870;28;20046;-72
2023/04/28 01:11:33;;;;;;;0.70;0.20;;;19.30;59.60;;;;;;5008106;28;20128;-72
2023/04/28 01:14:01;;;;;;;1.02;0.30;;;19.30;59.60;;;;;;5008725;28;20611;-72
2023/04/28 01:16:28;;;;;;;1.00;0.30;;;19.40;59.50;;;;;;5000776;28;20054;-72
2023/04/28 01:18:56;;;;;;;0.70;0.20;;;19.30;59.40;;;;;;5009125;28;20049;-71
2023/04/28 01:21:29;;;;;;;0.88;0.30;;;19.40;59.40;;;;;;5002216;28;20064;-71
2023/04/28 01:23:57;;;;;;;1.00;0.30;;;19.40;59.40;;;;;;4997048;28;20479;-72
2023/04/28 01:26:24;;;;;;;0.90;0.45;;;19.50;59.40;;;;;;5006552;28;20158;-72
2023/04/28 01:28:51;;;;;;;0.93;0.32;;;19.50;59.40;;;;;;5007428;28;20054;-72
2023/04/28 01:31:19;;;;;;;1.25;0.28;;;19.50;59.20;;;;;;5009635;28;20065;-70
2023/04/28 01:33:46;;;;;;;0.70;0.22;;;19.60;59.20;;;;;;5007500;28;20490;-72
2023/04/28 01:36:12;;;;;;;0.90;0.20;;;19.60;59.10;;;;;;4994387;28;20058;-72
2023/04/28 01:38:39;;;;;;;0.52;0.20;;;19.70;59.00;;;;;;5008631;28;20502;-72
2023/04/28 01:41:08;;;;;;;0.95;0.20;;;19.70;58.90;;;;;;5007550;28;20050;-71
2023/04/28 01:43:34;;;;;;;0.80;0.30;;;19.80;58.90;;;;;;4997029;28;20470;-72
2023/04/28 01:46:01;;;;;;;0.80;0.20;;;19.80;58.70;;;;;;5006886;28;20050;-72
2023/04/28 01:48:29;;;;;;;0.90;0.20;;;19.90;58.60;;;;;;5007670;28;20136;-71
2023/04/28 01:50:55;;;;;;;1.27;0.38;;;19.90;58.50;;;;;;5006938;28;20049;-71
2023/04/28 01:53:22;;;;;;;0.90;0.22;;;20.00;58.50;;;;;;5007568;28;20049;-72
2023/04/28 01:55:50;;;;;;;1.30;0.32;;;20.00;58.40;;;;;;4999393;28;20076;-71
2023/04/28 01:58:18;;;;;;;0.50;0.20;;;20.00;58.40;;;;;;5003762;28;20511;-71
2023/04/28 02:00:45;;;;;;;0.90;0.30;;;20.10;58.40;;;;;;5007284;28;20054;-72
2023/04/28 02:03:12;;;;;;;0.85;0.20;;;20.00;58.40;;;;;;5007396;28;20050;-71
2023/04/28 02:05:39;;;;;;;0.98;0.30;;;20.00;58.40;;;;;;5008086;28;20057;-71
2023/04/28 02:08:06;;;;;;;1.10;0.30;;;20.00;58.40;;;;;;5008442;28;20085;-71
2023/04/28 02:10:33;;;;;;;0.80;0.20;;;20.00;58.40;;;;;;5007524;28;20046;-72
2023/04/28 02:13:00;;;;;;;0.80;0.20;;;20.00;58.50;;;;;;4994311;28;20050;-72
2023/04/28 02:15:29;;;;;;;1.08;0.20;;;20.00;58.50;;;;;;5007241;28;20411;-71
2023/04/28 02:17:56;;;;;;;1.10;0.20;;;20.00;58.50;;;;;;5005765;28;20049;-71
2023/04/28 02:20:23;;;;;;;1.70;0.20;;;19.90;58.50;;;;;;4997862;28;20112;-72
2023/04/28 02:22:50;;;;;;;0.60;0.10;;;19.90;58.50;;;;;;4996808;28;20104;-72
2023/04/28 02:25:20;;;;;;;0.80;0.20;;;19.90;58.50;;;;;;5000214;28;20054;-72
2023/04/28 02:27:46;;;;;;;;;;;19.90;58.60;;;;;;5005226;28;20065;-72
2023/04/28 02:30:14;;;;;;;0.70;0.20;;;19.80;58.40;;;;;;5006597;28;19940;-72
2023/04/28 02:32:42;;;;;;;0.85;0.28;;;19.80;58.50;;;;;;5007428;28;20511;-72
2023/04/28 02:35:09;;;;;;;0.80;0.25;;;19.80;58.60;;;;;;5007463;28;20061;-71
2023/04/28 02:37:36;;;;;;;0.80;0.20;;;19.80;58.60;;;;;;5007643;28;20601;-72
2023/04/28 02:40:03;;;;;;;0.80;0.30;;;19.80;58.60;;;;;;5007668;28;20057;-72
2023/04/28 02:42:30;;;;;;;1.08;0.20;;;19.70;58.60;;;;;;5006570;28;20054;-71
2023/04/28 02:44:57;;;;;;;0.60;0.20;;;19.70;58.70;;;;;;5007532;28;20046;-72
2023/04/28 02:47:24;;;;;;;0.50;0.17;;;19.70;58.70;;;;;;5005015;28;20474;-72
2023/04/28 02:49:52;;;;;;;0.80;0.30;;;19.70;58.70;;;;;;5000153;28;20116;-72
2023/04/28 02:52:19;;;;;;;1.13;0.30;;;19.60;58.80;;;;;;5005750;28;20054;-72
2023/04/28 02:54:47;;;;;;;1.42;0.20;;;19.60;58.80;;;;;;5001891;28;20108;-72
2023/04/28 02:57:14;;;;;;;0.63;0.13;;;19.60;58.80;;;;;;5001231;28;20503;-71
2023/04/28 02:59:41;;;;;;;1.23;0.20;;;19.50;58.80;;;;;;4996038;28;20418;-71
2023/04/28 03:02:09;;;;;;;0.70;0.20;;;19.60;58.90;;;;;;5007126;28;20050;-72
2023/04/28 03:04:36;;;;;;;0.85;0.25;;;19.50;58.80;;;;;;5008644;28;20132;-70
2023/04/28 03:07:04;;;;;;;1.10;0.30;;;19.50;58.80;;;;;;5004715;28;20042;-72
2023/04/28 03:09:31;;;;;;;0.80;0.17;;;19.50;58.80;;;;;;5004620;28;20046;-71
2023/04/28 03:11:58;;;;;;;1.75;0.40;;;19.50;59.00;;;;;;5008504;28;20061;-72
2023/04/28 03:14:25;;;;;;;1.00;0.40;;;19.40;58.80;;;;;;4997854;28;20054;-72
2023/04/28 03:16:52;;;;;;;1.05;0.20;;;19.40;58.80;;;;;;5008978;28;20518;-71
2023/04/28 03:19:18;;;;;;;1.17;0.30;;;19.40;58.90;;;;;;5010347;28;20061;-72
2023/04/28 03:21:46;;;;;;;0.93;0.30;;;19.40;58.90;;;;;;5011305;28;20112;-71
2023/04/28 03:24:15;;;;;;;0.70;0.20;;;19.40;58.90;;;;;;5010460;28;20081;-70
2023/04/28 03:26:42;;;;;;;0.52;0.20;;;19.40;59.00;;;;;;4997470;28;20141;-72
2023/04/28 03:29:08;;;;;;;0.77;0.43;;;19.40;58.90;;;;;;4999880;28;20046;-71
2023/04/28 03:31:35;;;;;;;1.23;0.30;;;19.30;58.90;;;;;;5012388;28;20281;-72
2023/04/28 03:34:03;;;;;;;1.13;0.30;;;19.40;58.90;;;;;;5009309;28;20058;-72
2023/04/28 03:36:30;;;;;;;1.00;0.20;;;19.30;58.80;;;;;;5010298;28;20056;-72
2023/04/28 03:38:57;;;;;;;0.90;0.20;;;19.40;58.90;;;;;;5009085;28;20133;-71
2023/04/28 03:41:26;;;;;;;0.70;0.20;;;19.40;58.80;;;;;;5010219;28;20053;-71
2023/04/28 03:43:55;;;;;;;1.73;0.20;;;19.50;58.90;;;;;;5004618;28;20167;-71
2023/04/28 03:46:22;;;;;;;1.13;0.25;;;19.50;58.80;;;;;;5010061;28;20103;-71
2023/04/28 03:48:49;;;;;;;0.93;0.13;;;19.50;58.70;;;;;;5011808;28;20052;-71
2023/04/28 03:51:16;;;;;;;0.65;0.20;;;19.60;58.70;;;;;;5010447;28;20049;-72
2023/04/28 03:53:43;;;;;;;0.85;0.20;;;19.60;58.50;;;;;;5009382;28;20049;-72
2023/04/28 03:56:10;;;;;;;0.63;0.20;;;19.70;58.50;;;;;;4993493;28;20054;-71
2023/04/28 03:58:38;;;;;;;0.93;0.65;;;19.70;58.40;;;;;;4993697;28;20080;-71
2023/04/28 04:01:05;;;;;;;0.82;0.28;;;19.80;58.40;;;;;;5006309;28;20506;-72
2023/04/28 04:03:32;;;;;;;0.70;0.20;;;19.80;58.20;;;;;;4998509;28;20074;-71
2023/04/28 04:05:59;;;;;;;0.90;0.30;;;19.90;58.80;;;;;;5008784;28;20054;-72
2023/04/28 04:08:26;;;;;;;0.80;0.22;;;19.90;58.00;;;;;;5005069;28;20419;-71
2023/04/28 04:10:53;;;;;;;1.00;0.40;;;20.00;57.90;;;;;;4992376;28;20050;-71
2023/04/28 04:13:23;;;;;;;0.60;0.20;;;20.00;57.90;;;;;;5002398;28;20120;-72
2023/04/28 04:15:51;;;;;;;0.70;0.43;;;20.00;57.90;;;;;;5006651;28;20049;-71
2023/04/28 04:18:19;;;;;;;0.63;0.15;;;20.00;57.90;;;;;;5008394;28;20684;-71
2023/04/28 04:20:45;;;;;;;0.80;0.30;;;20.00;57.90;;;;;;4991197;28;20060;-71
2023/04/28 04:23:12;;;;;;;0.90;0.20;;;20.00;57.90;;;;;;5009170;28;20165;-71
2023/04/28 04:25:40;;;;;;;0.77;0.20;;;20.00;57.90;;;;;;5008748;28;20053;-72
2023/04/28 04:28:07;;;;;;;0.90;0.30;;;20.00;57.90;;;;;;5008214;28;20049;-71
2023/04/28 04:30:34;;;;;;;0.90;0.20;;;20.00;58.00;;;;;;5008827;28;20049;-71
2023/04/28 04:33:02;;;;;;;0.60;0.25;;;19.90;57.90;;;;;;5007649;28;20057;-71
2023/04/28 04:35:29;;;;;;;0.93;0.50;;;20.00;58.00;;;;;;5007207;28;20057;-72
2023/04/28 04:37:56;;;;;;;0.75;0.20;;;20.00;58.00;;;;;;5011926;28;20054;-71
2023/04/28 04:40:23;;;;;;;0.80;0.20;;;19.90;58.00;;;;;;5007373;28;20081;-71
2023/04/28 04:42:50;;;;;;;0.82;0.13;;;19.90;58.00;;;;;;5009510;28;20112;-70
2023/04/28 04:45:17;;;;;;;0.63;0.30;;;19.90;58.00;;;;;;5006496;28;20065;-72
2023/04/28 04:47:44;;;;;;;0.70;0.30;;;19.80;58.70;;;;;;5008245;28;20045;-71
2023/04/28 04:50:12;;;;;;;1.30;0.30;;;19.80;58.00;;;;;;5009484;28;20566;-71
2023/04/28 04:52:39;;;;;;;0.80;0.30;;;19.80;58.10;;;;;;4989212;28;20054;-70
2023/04/28 04:55:09;;;;;;;1.73;0.38;;;19.80;58.10;;;;;;5006491;28;20494;-71
2023/04/28 04:57:36;;;;;;;0.73;0.30;;;19.80;58.20;;;;;;5006257;28;20549;-72
2023/04/28 05:00:04;;;;;;;1.02;0.20;;;19.70;58.10;;;;;;5007827;28;20046;-72
2023/04/28 05:02:31;;;;;;;0.73;0.30;;;19.70;58.10;;;;;;5007630;28;20054;-71
2023/04/28 05:04:58;;;;;;;0.90;0.20;;;19.70;58.20;;;;;;4996234;28;20495;-72
2023/04/28 05:07:26;;;;;;;1.42;0.22;;;19.70;58.20;;;;;;5005431;28;20053;-70
2023/04/28 05:09:53;;;;;;;1.00;0.30;;;19.60;58.20;;;;;;5002322;28;20050;-71
2023/04/28 05:12:20;;;;;;;1.05;0.43;;;19.60;58.20;;;;;;5007929;28;20060;-71
2023/04/28 05:14:47;;;;;;;0.88;0.20;;;19.60;58.30;;;;;;5007251;28;20052;-71
2023/04/28 05:17:14;;;;;;;0.80;0.38;;;19.60;58.30;;;;;;5005603;28;20411;-71
2023/04/28 05:19:41;;;;;;;0.93;0.20;;;19.60;58.40;;;;;;5008787;28;20045;-71
2023/04/28 05:22:08;;;;;;;0.95;0.10;;;19.50;58.30;;;;;;5002962;28;20050;-71
2023/04/28 05:24:36;;;;;;;1.00;0.20;;;19.50;58.40;;;;;;5002622;28;20053;-72
2023/04/28 05:27:03;;;;;;;1.20;0.32;;;19.50;58.40;;;;;;5002248;28;20483;-70
2023/04/28 05:29:30;;;;;;;0.88;0.25;;;19.50;58.40;;;;;;5005134;28;20047;-71
2023/04/28 05:31:57;;;;;;;0.88;0.25;;;19.50;58.40;;;;;;4999800;28;20138;-71
2023/04/28 05:34:25;;;;;;;0.63;0.15;;;19.50;58.40;;;;;;5007187;28;20058;-72
2023/04/28 05:36:52;;;;;;;1.15;0.32;;;19.40;58.40;;;;;;5001694;28;20054;-72
2023/04/28 05:39:19;;;;;;;0.63;0.30;;;19.40;58.40;;;;;;5005771;28;20078;-71
2023/04/28 05:41:47;;;;;;;0.93;0.20;;;19.40;58.50;;;;;;5007694;28;20056;-71
2023/04/28 05:44:14;;;;;;;1.13;0.20;;;19.40;58.50;;;;;;5006718;28;20058;-71
2023/04/28 05:46:41;;;;;;;0.70;0.25;;;19.40;58.40;;;;;;5001210;28;20133;-72
2023/04/28 05:49:09;;;;;;;1.58;0.28;;;19.40;58.40;;;;;;4999354;28;20100;-72
2023/04/28 05:51:37;;;;;;;1.40;0.20;;;19.40;58.40;;;;;;4995609;28;20038;-71
2023/04/28 05:54:04;;;;;;;1.27;0.30;;;19.40;58.40;;;;;;4997197;28;20046;-71
2023/04/28 05:56:31;;;;;;;0.68;0.20;;;19.50;58.40;;;;;;5007484;28;20436;-71
2023/04/28 05:59:02;;;;;;;0.68;0.20;;;19.50;58.30;;;;;;5006520;28;20062;-71
2023/04/28 06:01:29;;;;;;;1.15;0.30;;;19.50;58.30;;;;;;4996696;28;20061;-70
2023/04/28 06:03:57;;;;;;;0.95;0.30;;;19.60;58.20;;;;;;5009210;28;20057;-71
2023/04/28 06:06:26;;;;;;;0.77;0.28;;;19.60;58.20;;;;;;5005136;28;20050;-71
2023/04/28 06:08:53;;;;;;;0.70;0.20;;;19.70;58.10;;;;;;4997206;28;20385;-72
2023/04/28 06:11:21;;;;;;;0.95;0.52;;;19.80;58.00;;;;;;5006917;28;20057;-72
2023/04/28 06:13:48;;;;;;;0.80;0.30;;;19.80;57.90;;;;;;5007993;28;20042;-72
2023/04/28 06:16:17;;;;;;;0.70;0.20;;;19.90;57.90;;;;;;5001705;28;20135;-71
2023/04/28 06:18:44;;;;;;;0.63;0.20;;;19.90;57.70;;;;;;5008042;28;20458;-71
2023/04/28 06:21:11;;;;;;;0.73;0.13;;;20.00;57.60;;;;;;5006036;28;20054;-72
2023/04/28 06:23:39;;;;;;;0.63;0.22;;;20.10;57.50;;;;;;5007349;28;20450;-72
2023/04/28 06:26:06;;;;;;;1.13;0.30;;;20.10;57.40;;;;;;5007639;28;20100;-71
2023/04/28 06:28:33;;;;;;;0.70;0.20;;;20.20;57.40;;;;;;5008406;28;20053;-72
2023/04/28 06:31:00;;;;;;;1.25;0.20;;;20.20;57.40;;;;;;5005788;28;20061;-72
2023/04/28 06:33:29;;;;;;;0.70;0.20;;;20.20;57.40;;;;;;4998199;28;20073;-71
2023/04/28 06:35:56;;;;;;;0.68;0.38;;;20.20;57.40;;;;;;5003764;28;20129;-72
2023/04/28 06:38:23;;;;;;;0.80;0.22;;;20.20;57.40;;;;;;5008657;28;20050;-71
2023/04/28 06:40:50;;;;;;;0.70;0.20;;;20.20;57.40;;;;;;5007818;28;20054;-71
2023/04/28 06:43:17;;;;;;;0.88;0.40;;;20.10;57.40;;;;;;5010512;28;20498;-71
2023/04/28 06:45:44;;;;;;;0.73;0.15;;;20.20;58.00;;;;;;5010453;28;20050;-72
2023/04/28 06:48:12;;;;;;;0.95;0.30;;;20.20;57.50;;;;;;5006842;28;20077;-71
2023/04/28 06:50:40;;;;;;;1.70;0.20;;;20.10;57.50;;;;;;5010322;28;20050;-71
2023/04/28 06:53:07;;;;;;;1.20;0.10;;;20.10;57.50;;;;;;5010359;28;20053;-72
2023/04/28 06:55:34;;;;;;;1.00;0.20;;;20.10;57.60;;;;;;5005307;28;20058;-71
2023/04/28 06:58:01;;;;;;;0.80;0.20;;;20.10;57.70;;;;;;5005281;28;20053;-72
2023/04/28 07:00:28;;;;;;;0.80;0.32;;;20.10;57.70;;;;;;5006987;28;20133;-71
2023/04/28 07:02:55;;;;;;;0.82;0.20;;;20.10;57.70;;;;;;5000095;28;20058;-71
2023/04/28 07:05:22;;;;;;;1.05;0.10;;;20.00;57.80;;;;;;5009168;28;20545;-71
2023/04/28 07:07:50;;;;;;;0.88;0.30;;;20.00;57.80;;;;;;5009447;28;20073;-72
2023/04/28 07:10:17;;;;;;;0.73;0.30;;;20.00;57.80;;;;;;5011336;28;20100;-72
2023/04/28 07:12:44;;;;;;;0.57;0.20;;;20.00;57.90;;;;;;5011047;28;20061;-72
2023/04/28 07:15:12;;;;;;;1.08;0.20;;;19.90;57.90;;;;;;5010148;28;20133;-72
2023/04/28 07:17:39;;;;;;;1.08;0.40;;;19.90;57.90;;;;;;5010113;28;20072;-71
2023/04/28 07:20:07;;;;;;;0.93;0.30;;;19.90;57.90;;;;;;4999321;28;20054;-71
2023/04/28 07:22:34;;;;;;;1.10;0.30;;;19.90;57.90;;;;;;5009545;28;20065;-71
2023/04/28 07:25:03;;;;;;;0.80;0.10;;;19.90;57.90;;;;;;5008679;28;20104;-72
2023/04/28 07:27:30;;;;;;;1.33;0.20;;;19.80;58.60;;;;;;5009107;28;20069;-71
2023/04/28 07:29:57;;;;;;;1.05;0.40;;;19.80;58.00;;;;;;5011440;28;20085;-72
2023/04/28 07:32:24;;;;;;;1.30;0.32;;;19.80;58.00;;;;;;5010181;28;20061;-72
2023/04/28 07:34:51;;;;;;;1.00;0.40;;;19.80;58.00;;;;;;5009999;28;20057;-72
2023/04/28 07:37:18;;;;;;;1.05;0.32;;;19.80;58.00;;;;;;5002102;28;20050;-71
2023/04/28 07:39:46;;;;;;;0.85;0.30;;;19.80;58.10;;;;;;5008595;28;20856;-71
2023/04/28 07:42:14;;;;;;;1.10;0.20;;;19.70;58.10;;;;;;5010568;28;20121;-71
2023/04/28 07:44:41;;;;;;;3.33;0.20;;;19.70;58.10;;;;;;5009445;28;20065;-71
2023/04/28 07:47:09;;;;;;;0.75;0.20;;;19.70;58.10;;;;;;5008103;28;20065;-72
2023/04/28 07:49:36;;;;;;;0.75;0.15;;;19.70;58.20;;;;;;4997131;28;20153;-73
2023/04/28 07:52:03;;;;;;;0.73;0.20;;;19.70;58.30;;;;;;4996757;28;20050;-72
2023/04/28 07:54:30;;;;;;;1.08;0.20;;;19.70;58.30;;;;;;5002155;28;20056;-73
2023/04/28 07:56:57;;;;;;;0.85;0.20;;;19.70;58.30;;;;;;5006915;28;20050;-71
2023/04/28 07:59:26;;;;;;;1.38;0.30;;;19.70;58.40;;;;;;5006083;28;20077;-81
2023/04/28 08:01:53;;;;;;;1.83;0.30;;;19.70;58.50;;;;;;5006776;28;20053;-77
2023/04/28 08:04:20;;;;;;;0.75;0.30;;;19.60;58.50;;;;;;5005981;28;20053;-77
2023/04/28 08:06:46;;;;;;;0.98;0.30;;;19.60;58.50;;;;;;4998697;28;20054;-78
2023/04/28 08:09:13;;;;;;;1.25;0.30;;;19.70;58.60;;;;;;4992064;28;20058;-79
2023/04/28 08:11:40;;;;;;;0.95;0.20;;;19.60;58.50;;;;;;5007535;28;20050;-78
2023/04/28 08:14:07;;;;;;;1.30;0.32;;;19.60;58.50;;;;;;5000749;28;20053;-78
2023/04/28 08:16:39;;;;;;;2.38;0.38;;;19.60;58.60;;;;;;5005162;28;20517;-79
2023/04/28 08:19:06;;;;;;;1.00;0.25;;;19.60;58.60;;;;;;5000680;28;22004;-77
2023/04/28 08:21:33;;;;;;;0.80;0.13;;;19.70;58.60;;;;;;5008308;28;20065;-78
2023/04/28 08:24:00;;;;;;;3.00;0.30;;;19.60;58.60;;;;;;5007686;28;20462;-72
2023/04/28 08:26:27;;;;;;;1.85;0.20;;;19.60;58.70;;;;;;5006627;28;20514;-80
2023/04/28 08:28:54;;;;;;;1.88;0.32;;;19.60;58.70;;;;;;5009486;28;20045;-80
2023/04/28 08:31:22;;;;;;;1.90;0.22;;;19.60;58.80;;;;;;5006859;28;20057;-73
2023/04/28 08:33:50;;;;;;;2.33;0.35;;;19.60;58.80;;;;;;5007705;28;20104;-73
2023/04/28 08:36:18;;;;;;;0.90;0.20;;;19.60;58.90;;;;;;5004983;28;20069;-74
2023/04/28 08:38:46;;;;;;;1.13;0.28;;;19.60;58.90;;;;;;5007251;28;20053;-74
2023/04/28 08:41:14;;;;;;;0.90;0.28;;;19.60;58.90;;;;;;5007781;28;20061;-73
2023/04/28 08:43:42;;;;;;;0.80;0.25;;;19.60;58.90;;;;;;5006368;28;20515;-73
2023/04/28 08:46:10;;;;;;;1.40;0.15;;;19.60;58.90;;;;;;5002976;28;20468;-73
2023/04/28 08:48:40;;;;;;;1.35;0.30;;;19.60;58.90;;;;;;5005929;28;20061;-73
2023/04/28 08:51:09;;;;;;;1.17;0.38;;;19.60;58.90;;;;;;5001292;28;20046;-73
2023/04/28 08:53:38;;;;;;;1.23;0.38;;;19.60;59.00;;;;;;5007281;28;20426;-74
2023/04/28 08:56:06;;;;;;;1.15;0.20;;;19.60;59.00;;;;;;5007436;28;20442;-72
2023/04/28 08:58:36;;;;;;;0.82;0.20;;;19.60;58.90;;;;;;5003722;28;20402;-74
2023/04/28 09:01:03;;;;;;;;;;;19.70;58.90;;;;;;5003951;28;20143;-74
2023/04/28 09:03:31;;;;;;;1.45;0.22;;;19.60;58.90;;;;;;5006238;28;20016;-73
2023/04/28 09:05:58;;;;;;;1.70;0.20;;;19.60;58.90;;;;;;5008036;28;20132;-73
2023/04/28 09:08:27;;;;;;;3.40;0.30;;;19.60;58.90;;;;;;5006375;28;20061;-72
2023/04/28 09:11:08;;;;;;;1.00;0.40;;;19.60;59.10;;;;;;5004029;28;20054;-72
2023/04/28 09:13:35;;;;;;;1.55;0.32;;;19.60;59.30;;;;;;4998301;28;20054;-75
2023/04/28 09:16:03;;;;;;;1.98;0.40;;;19.60;59.20;;;;;;4988837;28;20611;-74
2023/04/28 09:18:32;;;;;;;2.65;0.32;;;19.60;59.30;;;;;;5004614;28;20054;-74
2023/04/28 09:21:06;;;;;;;1.48;0.47;;;19.60;59.30;;;;;;5008658;28;20145;-74
2023/04/28 09:23:35;;;;;;;2.65;0.35;;;19.70;59.40;;;;;;5008821;28;20062;-75
2023/04/28 09:26:04;;;;;;;1.25;0.30;;;19.60;59.40;;;;;;5000245;28;20046;-74
2023/04/28 09:28:31;;;;;;;1.05;0.30;;;19.70;59.40;;;;;;5002874;28;20065;-74
2023/04/28 09:30:58;;;;;;;2.65;0.47;;;19.60;59.40;;;;;;5007249;28;20137;-71
2023/04/28 09:33:26;;;;;;;1.73;0.30;;;19.70;59.60;;;;;;5003698;28;20046;-75
2023/04/28 09:35:53;;;;;;;1.92;0.45;;;19.60;59.50;;;;;;5000578;28;20129;-74
2023/04/28 09:38:21;;;;;;;3.17;0.40;;;19.60;59.60;;;;;;5006709;28;20057;-72
2023/04/28 09:40:54;;;;;;;3.22;0.50;;;19.70;59.70;;;;;;4998206;28;20620;-73
2023/04/28 09:43:27;;;;;;;3.10;0.55;;;19.60;59.80;;;;;;5007079;28;20041;-74
2023/04/28 09:45:54;;;;;;;3.40;0.43;;;19.60;59.80;;;;;;5007438;28;20065;-74
2023/04/28 09:48:28;;;;;;;1.15;0.40;;;19.70;59.90;;;;;;5004274;28;20050;-73
2023/04/28 09:50:56;;;;;;;1.10;0.30;;;19.60;60.00;;;;;;4990670;28;20054;-74
2023/04/28 09:53:23;;;;;;;1.90;0.45;;;19.60;60.20;;;;;;5000477;28;20523;-73
2023/04/28 09:55:54;;;;;;;2.22;0.40;;;19.70;60.10;;;;;;4995118;28;20054;-73
2023/04/28 09:58:23;;;;;;;5.32;0.43;;;19.60;60.20;;;;;;4998934;28;20061;-71
2023/04/28 10:00:53;;;;;;;5.28;0.60;;;19.60;60.30;;;;;;5005762;28;20057;-71
2023/04/28 10:03:23;;;;;;;3.22;0.32;;;19.70;60.30;;;;;;5007644;28;20151;-70
2023/04/28 10:05:52;;;;;;;3.55;0.63;;;19.70;60.40;;;;;;5006555;28;20513;-72
2023/04/28 10:08:20;;;;;;;3.45;0.68;;;19.60;60.40;;;;;;5005054;28;20054;-70
2023/04/28 10:10:49;;;;;;;3.40;0.60;;;19.60;60.60;;;;;;5007748;28;20050;-72
2023/04/28 10:13:18;;;;;;;2.78;0.63;;;19.60;60.60;;;;;;5009225;28;20049;-72
2023/04/28 10:15:45;;;;;;;2.08;0.70;;;19.70;60.70;;;;;;5012116;28;20054;-71
2023/04/28 10:18:13;;;;;;;1.98;0.40;;;19.70;60.70;;;;;;5012631;28;20067;-72
2023/04/28 10:20:42;;;;;;;3.25;0.47;;;19.70;60.70;;;;;;5011866;28;20502;-71
2023/04/28 10:23:29;;;;;;;0.93;0.30;;;19.70;60.60;;;;;;5011838;28;20073;-72
2023/04/28 10:25:58;;;;;;;2.60;0.85;;;19.80;60.60;;;;;;5013119;28;20509;-71
2023/04/28 10:28:27;;;;;;;3.55;0.65;;;19.80;60.50;;;;;;5011436;28;20054;-71
2023/04/28 10:31:10;;;;;;;4.88;0.52;;;19.80;60.40;;;;;;5012977;28;20057;-71
2023/04/28 10:33:38;;;;;;;1.73;0.40;;;19.90;60.40;;;;;;5011536;28;20151;-72
2023/04/28 10:36:06;;;;;;;1.83;0.20;;;19.90;60.30;;;;;;5013279;28;20565;-72
2023/04/28 10:38:33;;;;;;;2.30;0.50;;;19.90;60.30;;;;;;5005036;28;20057;-71
2023/04/28 10:41:02;;;;;;;1.92;0.40;;;19.90;60.20;;;;;;4992104;28;20086;-72
2023/04/28 10:43:40;;;;;;;2.20;0.50;;;20.00;60.20;;;;;;5005924;28;20046;-71
2023/04/28 10:46:08;;;;;;;1.75;0.40;;;20.00;60.20;;;;;;5012398;28;20049;-72
2023/04/28 10:48:57;;;;;;;3.05;0.60;;;20.00;60.10;;;;;;5011885;28;20054;-71
2023/04/28 10:51:31;;;;;;;3.50;0.50;;;20.00;60.10;;;;;;5012659;28;20050;-71
2023/04/28 10:54:18;;;;;;;3.38;0.40;;;20.00;60.10;;;;;;5011736;28;20867;-72
2023/04/28 10:57:20;;;;;;;2.85;0.63;;;20.00;60.10;;;;;;5012316;28;20065;-72
2023/04/28 10:59:49;;;;;;;2.20;0.70;;;20.10;60.10;;;;;;5012079;28;20049;-72
2023/04/28 11:02:49;;;;;;;1.58;0.40;;;20.00;60.00;;;;;;4997940;28;20616;-71
2023/04/28 11:05:18;;;;;;;2.03;0.40;;;20.00;60.00;;;;;;4991319;28;20054;-71
2023/04/28 11:08:22;;;;;;;2.28;0.60;;;20.00;60.00;;;;;;4992514;28;20782;-71
2023/04/28 11:11:11;;;;;;;1.60;0.50;;;20.00;60.10;;;;;;4996309;28;20046;-71
2023/04/28 11:13:38;;;;;;;2.17;0.60;;;20.00;60.10;;;;;;4992429;28;20050;-71
2023/04/28 11:16:07;;;;;;;1.38;0.50;;;20.00;60.10;;;;;;4998736;28;20050;-72
2023/04/28 11:18:48;;;;;;;3.00;0.70;;;19.90;60.10;;;;;;5011939;28;20065;-71
2023/04/28 11:21:15;;;;;;;1.33;0.47;;;19.90;60.10;;;;;;5010743;28;20149;-72
2023/04/28 11:23:43;;;;;;;4.47;0.70;;;19.90;60.10;;;;;;5010934;28;20050;-72
2023/04/28 11:26:10;;;;;;;2.60;0.60;;;19.90;60.10;;;;;;5009956;28;20068;-71
2023/04/28 11:28:46;;;;;;;2.15;0.47;;;19.90;60.10;;;;;;5011784;28;20065;-71
2023/04/28 11:31:18;;;;;;;2.33;0.70;;;19.90;60.20;;;;;;5011425;28;20089;-71
2023/04/28 11:33:52;;;;;;;2.42;0.60;;;19.90;60.20;;;;;;5011618;28;20156;-71
2023/04/28 11:36:24;;;;;;;1.38;0.55;;;19.90;60.20;;;;;;5010724;28;20054;-72
2023/04/28 11:38:51;;;;;;;1.88;0.50;;;19.90;60.20;;;;;;5011610;28;20139;-72
2023/04/28 11:41:18;;;;;;;1.50;0.45;;;19.90;60.20;;;;;;5010467;28;20064;-72
2023/04/28 11:43:45;;;;;;;2.35;0.43;;;19.90;60.20;;;;;;5011068;28;20054;-71
2023/04/28 11:46:18;;;;;;;2.40;0.65;;;19.80;60.20;;;;;;5009825;28;20582;-72
2023/04/28 11:48:45;;;;;;;1.48;0.50;;;19.80;60.20;;;;;;5010812;28;20580;-72
2023/04/28 11:51:28;;;;;;;1.98;0.57;;;19.80;60.20;;;;;;5010587;28;20050;-71
2023/04/28 11:53:55;;;;;;;2.72;0.45;;;19.80;60.30;;;;;;5011578;28;20056;-72
2023/04/28 11:56:22;;;;;;;2.08;0.50;;;19.80;60.30;;;;;;5011172;28;20054;-70
2023/04/28 11:59:01;;;;;;;3.35;0.68;;;19.80;60.30;;;;;;5011438;28;20056;-71
2023/04/28 12:01:29;;;;;;;1.40;0.30;;;19.80;60.30;;;;;;5011658;28;20164;-71
2023/04/28 12:03:56;;;;;;;1.33;0.47;;;19.80;60.30;;;;;;5010115;28;20057;-72
2023/04/28 12:06:23;;;;;;;2.92;0.80;;;19.70;60.30;;;;;;5011181;28;20057;-71
2023/04/28 12:08:51;;;;;;;1.58;0.52;;;19.80;60.40;;;;;;5011237;28;20061;-71
2023/04/28 12:11:20;;;;;;;1.30;0.55;;;19.70;60.40;;;;;;5011038;28;20068;-72
2023/04/28 12:14:05;;;;;;;1.95;0.40;;;19.70;60.40;;;;;;5010965;28;20660;-72
2023/04/28 12:16:43;;;;;;;1.75;0.65;;;19.80;60.50;;;;;;5010330;28;20057;-71
2023/04/28 12:19:11;;;;;;;3.92;0.65;;;19.70;60.40;;;;;;4991151;28;20054;-71
2023/04/28 12:21:39;;;;;;;1.58;0.47;;;19.70;60.40;;;;;;4991185;28;20070;-71
2023/04/28 12:24:21;;;;;;;2.30;0.68;;;19.70;60.40;;;;;;4990201;28;20553;-71
2023/04/28 12:26:48;;;;;;;2.05;0.75;;;19.70;60.50;;;;;;4991128;28;20054;-71
2023/04/28 12:29:38;;;;;;;1.40;0.40;;;19.70;60.50;;;;;;4991218;28;20047;-72
2023/04/28 12:32:07;;;;;;;2.25;0.55;;;19.70;60.50;;;;;;5008593;28;20112;-72
2023/04/28 12:34:35;;;;;;;1.20;0.40;;;19.70;60.50;;;;;;5011098;28;20780;-73
2023/04/28 12:37:04;;;;;;;1.55;0.35;;;19.70;60.50;;;;;;5009393;28;20053;-72
2023/04/28 12:39:32;;;;;;;1.33;0.43;;;19.70;60.50;;;;;;5010443;28;20129;-72
2023/04/28 12:42:01;;;;;;;1.60;0.60;;;19.70;60.50;;;;;;5010226;28;20096;-72
2023/04/28 12:44:28;;;;;;;2.10;0.50;;;19.70;60.50;;;;;;5009301;28;20054;-72
2023/04/28 12:46:55;;;;;;;1.20;0.45;;;19.70;60.50;;;;;;5008185;28;20053;-72
2023/04/28 12:49:24;;;;;;;1.50;0.60;;;19.70;60.50;;;;;;5008993;28;20045;-72
2023/04/28 12:51:51;;;;;;;1.40;0.60;;;19.70;60.60;;;;;;5010530;28;20046;-71
2023/04/28 12:54:18;;;;;;;1.65;0.57;;;19.70;60.60;;;;;;5010122;28;20053;-72